sensor_id;sensor_type;location;lat;lon;timestamp;P1;durP1;ratioP1;P2;durP2;ratioP2
51578;SDS011;47998;53.242;6.386;2023-02-03T00:01:52;10.10;;;2.38;;
51578;SDS011;47998;53.242;6.386;2023-02-03T00:04:18;10.85;;;1.80;;
51578;SDS011;47998;53.242;6.386;2023-02-03T00:06:43;11.02;;;2.70;;
51578;SDS011;47998;53.242;6.386;2023-02-03T00:09:09;7.28;;;1.83;;
51578;SDS011;47998;53.242;6.386;2023-02-03T00:11:35;12.68;;;2.63;;
51578;SDS011;47998;53.242;6.386;2023-02-03T00:14:01;18.35;;;2.67;;
51578;SDS011;47998;53.242;6.386;2023-02-03T00:16:29;12.50;;;2.50;;
51578;SDS011;47998;53.242;6.386;2023-02-03T00:18:55;10.82;;;2.42;;
51578;SDS011;47998;53.242;6.386;2023-02-03T00:21:21;11.75;;;1.95;;
51578;SDS011;47998;53.242;6.386;2023-02-03T00:23:46;9.90;;;2.22;;
51578;SDS011;47998;53.242;6.386;2023-02-03T00:26:13;12.10;;;1.65;;
51578;SDS011;47998;53.242;6.386;2023-02-03T00:28:40;9.70;;;2.20;;
51578;SDS011;47998;53.242;6.386;2023-02-03T00:31:13;8.80;;;1.70;;
51578;SDS011;47998;53.242;6.386;2023-02-03T00:33:43;15.75;;;2.30;;
51578;SDS011;47998;53.242;6.386;2023-02-03T00:36:09;12.55;;;1.85;;
51578;SDS011;47998;53.242;6.386;2023-02-03T00:38:36;14.18;;;2.47;;
51578;SDS011;47998;53.242;6.386;2023-02-03T00:41:01;11.32;;;1.92;;
51578;SDS011;47998;53.242;6.386;2023-02-03T00:43:28;12.43;;;2.75;;
51578;SDS011;47998;53.242;6.386;2023-02-03T00:45:53;12.02;;;2.55;;
51578;SDS011;47998;53.242;6.386;2023-02-03T00:48:19;12.23;;;2.47;;
51578;SDS011;47998;53.242;6.386;2023-02-03T00:50:48;12.93;;;2.28;;
51578;SDS011;47998;53.242;6.386;2023-02-03T00:53:13;11.88;;;2.75;;
51578;SDS011;47998;53.242;6.386;2023-02-03T00:55:41;12.38;;;3.05;;
51578;SDS011;47998;53.242;6.386;2023-02-03T00:58:07;9.68;;;2.35;;
51578;SDS011;47998;53.242;6.386;2023-02-03T01:00:33;14.90;;;2.92;;
51578;SDS011;47998;53.242;6.386;2023-02-03T01:02:59;16.08;;;3.55;;
51578;SDS011;47998;53.242;6.386;2023-02-03T01:05:24;8.93;;;2.25;;
51578;SDS011;47998;53.242;6.386;2023-02-03T01:07:50;15.70;;;3.67;;
51578;SDS011;47998;53.242;6.386;2023-02-03T01:10:16;14.43;;;2.90;;
51578;SDS011;47998;53.242;6.386;2023-02-03T01:12:42;13.48;;;2.63;;
51578;SDS011;47998;53.242;6.386;2023-02-03T01:15:07;18.25;;;3.08;;
51578;SDS011;47998;53.242;6.386;2023-02-03T01:17:33;10.70;;;2.50;;
51578;SDS011;47998;53.242;6.386;2023-02-03T01:19:59;19.60;;;3.35;;
51578;SDS011;47998;53.242;6.386;2023-02-03T01:22:25;16.10;;;2.67;;
51578;SDS011;47998;53.242;6.386;2023-02-03T01:24:52;13.93;;;2.83;;
51578;SDS011;47998;53.242;6.386;2023-02-03T01:27:18;13.23;;;3.33;;
51578;SDS011;47998;53.242;6.386;2023-02-03T01:29:44;16.05;;;4.13;;
51578;SDS011;47998;53.242;6.386;2023-02-03T01:32:09;12.80;;;2.28;;
51578;SDS011;47998;53.242;6.386;2023-02-03T01:34:35;25.90;;;4.25;;
51578;SDS011;47998;53.242;6.386;2023-02-03T01:37:01;13.23;;;3.28;;
51578;SDS011;47998;53.242;6.386;2023-02-03T01:39:26;12.52;;;2.28;;
51578;SDS011;47998;53.242;6.386;2023-02-03T01:41:54;14.15;;;2.95;;
51578;SDS011;47998;53.242;6.386;2023-02-03T01:44:40;15.57;;;2.95;;
51578;SDS011;47998;53.242;6.386;2023-02-03T01:50:19;12.20;;;2.78;;
51578;SDS011;47998;53.242;6.386;2023-02-03T01:52:51;12.77;;;3.10;;
51578;SDS011;47998;53.242;6.386;2023-02-03T01:55:22;20.10;;;3.53;;
51578;SDS011;47998;53.242;6.386;2023-02-03T01:57:57;12.30;;;3.65;;
51578;SDS011;47998;53.242;6.386;2023-02-03T02:00:25;16.70;;;2.72;;
51578;SDS011;47998;53.242;6.386;2023-02-03T02:02:52;9.52;;;2.78;;
51578;SDS011;47998;53.242;6.386;2023-02-03T02:07:49;15.65;;;3.42;;
51578;SDS011;47998;53.242;6.386;2023-02-03T02:10:15;19.95;;;4.07;;
51578;SDS011;47998;53.242;6.386;2023-02-03T02:12:41;16.58;;;3.83;;
51578;SDS011;47998;53.242;6.386;2023-02-03T02:15:07;13.50;;;3.45;;
51578;SDS011;47998;53.242;6.386;2023-02-03T02:42:38;14.73;;;3.30;;
51578;SDS011;47998;53.242;6.386;2023-02-03T02:45:09;14.68;;;3.08;;
51578;SDS011;47998;53.242;6.386;2023-02-03T02:47:40;14.70;;;3.07;;
51578;SDS011;47998;53.242;6.386;2023-02-03T02:50:08;16.83;;;3.30;;
51578;SDS011;47998;53.242;6.386;2023-02-03T02:52:42;16.67;;;4.00;;
51578;SDS011;47998;53.242;6.386;2023-02-03T02:55:12;19.17;;;4.25;;
51578;SDS011;47998;53.242;6.386;2023-02-03T02:57:48;20.83;;;4.65;;
51578;SDS011;47998;53.242;6.386;2023-02-03T03:00:17;14.45;;;3.63;;
51578;SDS011;47998;53.242;6.386;2023-02-03T03:02:43;19.40;;;3.90;;
51578;SDS011;47998;53.242;6.386;2023-02-03T03:05:09;15.65;;;3.33;;
51578;SDS011;47998;53.242;6.386;2023-02-03T03:07:55;13.13;;;3.60;;
51578;SDS011;47998;53.242;6.386;2023-02-03T03:10:27;16.05;;;3.28;;
51578;SDS011;47998;53.242;6.386;2023-02-03T03:12:58;25.10;;;4.50;;
51578;SDS011;47998;53.242;6.386;2023-02-03T03:15:28;18.23;;;3.17;;
51578;SDS011;47998;53.242;6.386;2023-02-03T03:18:00;16.73;;;3.80;;
51578;SDS011;47998;53.242;6.386;2023-02-03T03:20:50;15.82;;;3.55;;
51578;SDS011;47998;53.242;6.386;2023-02-03T03:23:23;21.27;;;3.58;;
51578;SDS011;47998;53.242;6.386;2023-02-03T03:25:55;12.55;;;3.42;;
51578;SDS011;47998;53.242;6.386;2023-02-03T03:28:29;14.43;;;3.78;;
51578;SDS011;47998;53.242;6.386;2023-02-03T03:31:02;18.77;;;4.18;;
51578;SDS011;47998;53.242;6.386;2023-02-03T03:33:28;23.75;;;4.05;;
51578;SDS011;47998;53.242;6.386;2023-02-03T03:36:02;16.00;;;3.03;;
51578;SDS011;47998;53.242;6.386;2023-02-03T03:44:04;17.23;;;4.03;;
51578;SDS011;47998;53.242;6.386;2023-02-03T03:46:35;13.10;;;3.08;;
51578;SDS011;47998;53.242;6.386;2023-02-03T03:49:07;14.48;;;3.42;;
51578;SDS011;47998;53.242;6.386;2023-02-03T03:51:43;13.77;;;3.20;;
51578;SDS011;47998;53.242;6.386;2023-02-03T03:54:14;17.83;;;4.05;;
51578;SDS011;47998;53.242;6.386;2023-02-03T03:56:45;20.30;;;3.58;;
51578;SDS011;47998;53.242;6.386;2023-02-03T03:59:18;16.92;;;4.10;;
51578;SDS011;47998;53.242;6.386;2023-02-03T04:01:47;17.38;;;3.10;;
51578;SDS011;47998;53.242;6.386;2023-02-03T04:04:13;21.70;;;3.58;;
51578;SDS011;47998;53.242;6.386;2023-02-03T04:06:40;19.08;;;3.72;;
51578;SDS011;47998;53.242;6.386;2023-02-03T04:09:06;20.15;;;3.85;;
51578;SDS011;47998;53.242;6.386;2023-02-03T04:11:32;22.08;;;4.15;;
51578;SDS011;47998;53.242;6.386;2023-02-03T04:14:16;17.30;;;3.72;;
51578;SDS011;47998;53.242;6.386;2023-02-03T04:16:42;17.73;;;4.25;;
51578;SDS011;47998;53.242;6.386;2023-02-03T04:19:08;19.25;;;3.15;;
51578;SDS011;47998;53.242;6.386;2023-02-03T04:21:33;21.50;;;4.32;;
51578;SDS011;47998;53.242;6.386;2023-02-03T04:23:59;18.25;;;4.10;;
51578;SDS011;47998;53.242;6.386;2023-02-03T04:26:25;21.50;;;3.95;;
51578;SDS011;47998;53.242;6.386;2023-02-03T04:28:51;21.58;;;3.85;;
51578;SDS011;47998;53.242;6.386;2023-02-03T04:31:16;14.20;;;2.90;;
51578;SDS011;47998;53.242;6.386;2023-02-03T04:33:42;20.10;;;3.97;;
51578;SDS011;47998;53.242;6.386;2023-02-03T04:36:08;15.27;;;3.17;;
51578;SDS011;47998;53.242;6.386;2023-02-03T04:38:34;19.10;;;4.18;;
51578;SDS011;47998;53.242;6.386;2023-02-03T04:41:00;19.02;;;3.88;;
51578;SDS011;47998;53.242;6.386;2023-02-03T04:43:25;15.13;;;3.72;;
51578;SDS011;47998;53.242;6.386;2023-02-03T04:45:51;15.40;;;4.20;;
51578;SDS011;47998;53.242;6.386;2023-02-03T04:48:17;15.95;;;3.15;;
51578;SDS011;47998;53.242;6.386;2023-02-03T04:50:42;16.30;;;4.35;;
51578;SDS011;47998;53.242;6.386;2023-02-03T04:53:08;14.95;;;3.00;;
51578;SDS011;47998;53.242;6.386;2023-02-03T04:55:34;21.17;;;3.95;;
51578;SDS011;47998;53.242;6.386;2023-02-03T04:58:00;13.10;;;3.28;;
51578;SDS011;47998;53.242;6.386;2023-02-03T05:00:26;17.48;;;3.75;;
51578;SDS011;47998;53.242;6.386;2023-02-03T05:02:52;19.00;;;4.15;;
51578;SDS011;47998;53.242;6.386;2023-02-03T05:05:19;16.00;;;4.68;;
51578;SDS011;47998;53.242;6.386;2023-02-03T05:07:45;15.23;;;3.33;;
51578;SDS011;47998;53.242;6.386;2023-02-03T05:10:11;13.60;;;3.45;;
51578;SDS011;47998;53.242;6.386;2023-02-03T05:12:36;16.30;;;3.15;;
51578;SDS011;47998;53.242;6.386;2023-02-03T05:15:02;16.73;;;3.72;;
51578;SDS011;47998;53.242;6.386;2023-02-03T05:17:28;11.57;;;2.70;;
51578;SDS011;47998;53.242;6.386;2023-02-03T05:19:54;17.85;;;3.10;;
51578;SDS011;47998;53.242;6.386;2023-02-03T05:22:19;15.10;;;3.22;;
51578;SDS011;47998;53.242;6.386;2023-02-03T05:24:45;22.48;;;3.45;;
51578;SDS011;47998;53.242;6.386;2023-02-03T05:27:11;18.15;;;3.30;;
51578;SDS011;47998;53.242;6.386;2023-02-03T05:29:36;19.08;;;3.85;;
51578;SDS011;47998;53.242;6.386;2023-02-03T05:32:02;19.95;;;2.88;;
51578;SDS011;47998;53.242;6.386;2023-02-03T05:34:28;15.18;;;3.65;;
51578;SDS011;47998;53.242;6.386;2023-02-03T05:36:54;15.75;;;3.42;;
51578;SDS011;47998;53.242;6.386;2023-02-03T05:39:19;18.67;;;4.80;;
51578;SDS011;47998;53.242;6.386;2023-02-03T05:41:45;20.55;;;3.97;;
51578;SDS011;47998;53.242;6.386;2023-02-03T05:44:20;17.08;;;3.47;;
51578;SDS011;47998;53.242;6.386;2023-02-03T05:46:48;14.48;;;3.42;;
51578;SDS011;47998;53.242;6.386;2023-02-03T05:49:14;19.42;;;4.13;;
51578;SDS011;47998;53.242;6.386;2023-02-03T05:51:40;16.75;;;3.72;;
51578;SDS011;47998;53.242;6.386;2023-02-03T05:54:06;16.27;;;4.03;;
51578;SDS011;47998;53.242;6.386;2023-02-03T05:56:32;17.52;;;4.13;;
51578;SDS011;47998;53.242;6.386;2023-02-03T05:58:58;18.63;;;4.50;;
51578;SDS011;47998;53.242;6.386;2023-02-03T06:01:24;18.05;;;4.85;;
51578;SDS011;47998;53.242;6.386;2023-02-03T06:03:50;21.63;;;3.97;;
51578;SDS011;47998;53.242;6.386;2023-02-03T06:06:15;25.55;;;5.30;;
51578;SDS011;47998;53.242;6.386;2023-02-03T06:08:42;21.70;;;5.53;;
51578;SDS011;47998;53.242;6.386;2023-02-03T06:11:08;21.83;;;4.68;;
51578;SDS011;47998;53.242;6.386;2023-02-03T06:13:34;21.70;;;4.68;;
51578;SDS011;47998;53.242;6.386;2023-02-03T06:16:00;19.90;;;5.57;;
51578;SDS011;47998;53.242;6.386;2023-02-03T06:18:26;21.15;;;4.78;;
51578;SDS011;47998;53.242;6.386;2023-02-03T06:20:51;22.35;;;5.07;;
51578;SDS011;47998;53.242;6.386;2023-02-03T06:23:17;25.17;;;6.32;;
51578;SDS011;47998;53.242;6.386;2023-02-03T06:25:43;23.25;;;6.10;;
51578;SDS011;47998;53.242;6.386;2023-02-03T06:28:11;25.80;;;5.45;;
51578;SDS011;47998;53.242;6.386;2023-02-03T06:30:37;28.27;;;5.70;;
51578;SDS011;47998;53.242;6.386;2023-02-03T06:33:02;27.08;;;5.63;;
51578;SDS011;47998;53.242;6.386;2023-02-03T06:35:28;23.27;;;5.00;;
51578;SDS011;47998;53.242;6.386;2023-02-03T06:37:54;22.70;;;5.15;;
51578;SDS011;47998;53.242;6.386;2023-02-03T06:40:19;31.35;;;5.75;;
51578;SDS011;47998;53.242;6.386;2023-02-03T06:42:45;26.95;;;4.93;;
51578;SDS011;47998;53.242;6.386;2023-02-03T06:45:12;26.13;;;4.47;;
51578;SDS011;47998;53.242;6.386;2023-02-03T06:47:39;26.85;;;5.80;;
51578;SDS011;47998;53.242;6.386;2023-02-03T06:50:10;22.95;;;5.93;;
51578;SDS011;47998;53.242;6.386;2023-02-03T06:52:37;24.23;;;5.05;;
51578;SDS011;47998;53.242;6.386;2023-02-03T06:55:03;27.15;;;5.75;;
51578;SDS011;47998;53.242;6.386;2023-02-03T06:57:30;27.27;;;6.30;;
51578;SDS011;47998;53.242;6.386;2023-02-03T06:59:56;25.73;;;6.43;;
51578;SDS011;47998;53.242;6.386;2023-02-03T07:02:22;33.53;;;5.32;;
51578;SDS011;47998;53.242;6.386;2023-02-03T07:04:48;31.60;;;6.20;;
51578;SDS011;47998;53.242;6.386;2023-02-03T07:07:14;26.40;;;6.03;;
51578;SDS011;47998;53.242;6.386;2023-02-03T07:09:40;29.52;;;6.40;;
51578;SDS011;47998;53.242;6.386;2023-02-03T07:12:06;25.00;;;6.90;;
51578;SDS011;47998;53.242;6.386;2023-02-03T07:14:32;28.63;;;6.63;;
51578;SDS011;47998;53.242;6.386;2023-02-03T07:17:03;26.13;;;5.80;;
51578;SDS011;47998;53.242;6.386;2023-02-03T07:19:30;34.90;;;7.45;;
51578;SDS011;47998;53.242;6.386;2023-02-03T07:21:55;36.90;;;7.38;;
51578;SDS011;47998;53.242;6.386;2023-02-03T07:24:21;33.92;;;6.72;;
51578;SDS011;47998;53.242;6.386;2023-02-03T07:26:47;30.67;;;7.97;;
51578;SDS011;47998;53.242;6.386;2023-02-03T07:29:13;31.83;;;7.88;;
51578;SDS011;47998;53.242;6.386;2023-02-03T07:31:38;27.23;;;5.57;;
51578;SDS011;47998;53.242;6.386;2023-02-03T07:34:04;43.45;;;7.38;;
51578;SDS011;47998;53.242;6.386;2023-02-03T07:36:30;35.95;;;7.60;;
51578;SDS011;47998;53.242;6.386;2023-02-03T07:38:57;47.33;;;9.43;;
51578;SDS011;47998;53.242;6.386;2023-02-03T07:41:22;36.85;;;8.77;;
51578;SDS011;47998;53.242;6.386;2023-02-03T07:43:48;45.03;;;8.32;;
51578;SDS011;47998;53.242;6.386;2023-02-03T07:46:14;37.50;;;8.80;;
51578;SDS011;47998;53.242;6.386;2023-02-03T07:48:40;36.90;;;8.00;;
51578;SDS011;47998;53.242;6.386;2023-02-03T07:51:06;35.58;;;6.85;;
51578;SDS011;47998;53.242;6.386;2023-02-03T07:53:32;40.00;;;7.53;;
51578;SDS011;47998;53.242;6.386;2023-02-03T07:56:01;39.97;;;7.93;;
51578;SDS011;47998;53.242;6.386;2023-02-03T07:58:28;36.35;;;7.97;;
51578;SDS011;47998;53.242;6.386;2023-02-03T08:00:54;31.05;;;7.20;;
51578;SDS011;47998;53.242;6.386;2023-02-03T08:03:20;43.30;;;7.78;;
51578;SDS011;47998;53.242;6.386;2023-02-03T08:05:46;47.65;;;9.15;;
51578;SDS011;47998;53.242;6.386;2023-02-03T08:08:12;46.67;;;8.70;;
51578;SDS011;47998;53.242;6.386;2023-02-03T08:10:38;43.58;;;10.80;;
51578;SDS011;47998;53.242;6.386;2023-02-03T08:13:03;39.85;;;8.85;;
51578;SDS011;47998;53.242;6.386;2023-02-03T08:15:29;38.83;;;8.23;;
51578;SDS011;47998;53.242;6.386;2023-02-03T08:17:55;40.08;;;8.40;;
51578;SDS011;47998;53.242;6.386;2023-02-03T08:20:21;43.28;;;8.00;;
51578;SDS011;47998;53.242;6.386;2023-02-03T08:22:47;43.38;;;8.60;;
51578;SDS011;47998;53.242;6.386;2023-02-03T08:25:13;41.25;;;8.70;;
51578;SDS011;47998;53.242;6.386;2023-02-03T08:27:38;50.03;;;10.93;;
51578;SDS011;47998;53.242;6.386;2023-02-03T08:30:05;40.38;;;9.27;;
51578;SDS011;47998;53.242;6.386;2023-02-03T08:32:34;53.50;;;10.15;;
51578;SDS011;47998;53.242;6.386;2023-02-03T08:34:59;41.67;;;9.15;;
51578;SDS011;47998;53.242;6.386;2023-02-03T08:37:25;41.70;;;9.50;;
51578;SDS011;47998;53.242;6.386;2023-02-03T08:39:52;37.58;;;9.10;;
51578;SDS011;47998;53.242;6.386;2023-02-03T08:42:18;41.33;;;9.77;;
51578;SDS011;47998;53.242;6.386;2023-02-03T08:44:44;45.83;;;8.45;;
51578;SDS011;47998;53.242;6.386;2023-02-03T08:47:10;39.17;;;6.28;;
51578;SDS011;47998;53.242;6.386;2023-02-03T08:49:36;33.40;;;5.90;;
51578;SDS011;47998;53.242;6.386;2023-02-03T08:52:04;39.67;;;7.63;;
51578;SDS011;47998;53.242;6.386;2023-02-03T08:54:32;33.53;;;7.22;;
51578;SDS011;47998;53.242;6.386;2023-02-03T08:56:58;33.75;;;5.55;;
51578;SDS011;47998;53.242;6.386;2023-02-03T08:59:24;42.80;;;8.73;;
51578;SDS011;47998;53.242;6.386;2023-02-03T09:01:50;38.97;;;7.22;;
51578;SDS011;47998;53.242;6.386;2023-02-03T09:04:16;38.60;;;6.85;;
51578;SDS011;47998;53.242;6.386;2023-02-03T09:06:46;38.40;;;7.75;;
51578;SDS011;47998;53.242;6.386;2023-02-03T09:09:12;38.42;;;6.72;;
51578;SDS011;47998;53.242;6.386;2023-02-03T09:11:39;34.50;;;6.65;;
51578;SDS011;47998;53.242;6.386;2023-02-03T09:14:06;37.42;;;7.35;;
51578;SDS011;47998;53.242;6.386;2023-02-03T09:16:31;29.80;;;5.85;;
51578;SDS011;47998;53.242;6.386;2023-02-03T09:18:57;25.63;;;4.60;;
51578;SDS011;47998;53.242;6.386;2023-02-03T09:21:23;33.97;;;5.68;;
51578;SDS011;47998;53.242;6.386;2023-02-03T09:23:48;33.65;;;4.93;;
51578;SDS011;47998;53.242;6.386;2023-02-03T09:26:14;39.20;;;7.40;;
51578;SDS011;47998;53.242;6.386;2023-02-03T09:28:40;39.22;;;5.57;;
51578;SDS011;47998;53.242;6.386;2023-02-03T09:31:10;28.02;;;5.07;;
51578;SDS011;47998;53.242;6.386;2023-02-03T09:33:42;37.53;;;6.15;;
51578;SDS011;47998;53.242;6.386;2023-02-03T09:36:08;47.63;;;8.50;;
51578;SDS011;47998;53.242;6.386;2023-02-03T09:38:34;42.95;;;7.43;;
51578;SDS011;47998;53.242;6.386;2023-02-03T09:41:02;37.78;;;7.97;;
51578;SDS011;47998;53.242;6.386;2023-02-03T09:46:54;44.00;;;8.48;;
51578;SDS011;47998;53.242;6.386;2023-02-03T09:49:43;30.70;;;6.10;;
51578;SDS011;47998;53.242;6.386;2023-02-03T09:52:23;38.10;;;6.40;;
51578;SDS011;47998;53.242;6.386;2023-02-03T09:55:05;35.70;;;7.00;;
51578;SDS011;47998;53.242;6.386;2023-02-03T09:58:00;47.10;;;8.85;;
51578;SDS011;47998;53.242;6.386;2023-02-03T10:00:39;49.70;;;6.72;;
51578;SDS011;47998;53.242;6.386;2023-02-03T10:06:40;39.20;;;8.13;;
51578;SDS011;47998;53.242;6.386;2023-02-03T10:16:51;44.45;;;7.72;;
51578;SDS011;47998;53.242;6.386;2023-02-03T10:19:23;42.38;;;7.38;;
51578;SDS011;47998;53.242;6.386;2023-02-03T10:21:58;40.72;;;5.78;;
51578;SDS011;47998;53.242;6.386;2023-02-03T10:24:31;45.42;;;7.57;;
51578;SDS011;47998;53.242;6.386;2023-02-03T10:27:05;39.28;;;6.70;;
51578;SDS011;47998;53.242;6.386;2023-02-03T10:29:40;31.63;;;5.03;;
51578;SDS011;47998;53.242;6.386;2023-02-03T10:32:10;44.10;;;7.32;;
51578;SDS011;47998;53.242;6.386;2023-02-03T10:34:37;51.67;;;9.55;;
51578;SDS011;47998;53.242;6.386;2023-02-03T10:37:13;50.53;;;7.82;;
51578;SDS011;47998;53.242;6.386;2023-02-03T10:39:48;46.25;;;7.93;;
51578;SDS011;47998;53.242;6.386;2023-02-03T10:42:16;55.63;;;10.13;;
51578;SDS011;47998;53.242;6.386;2023-02-03T10:44:44;39.30;;;5.88;;
51578;SDS011;47998;53.242;6.386;2023-02-03T10:47:18;43.25;;;9.52;;
51578;SDS011;47998;53.242;6.386;2023-02-03T10:49:46;40.60;;;7.00;;
51578;SDS011;47998;53.242;6.386;2023-02-03T10:52:37;34.63;;;6.40;;
51578;SDS011;47998;53.242;6.386;2023-02-03T10:55:06;34.25;;;6.07;;
51578;SDS011;47998;53.242;6.386;2023-02-03T10:57:54;47.00;;;8.93;;
51578;SDS011;47998;53.242;6.386;2023-02-03T11:00:30;46.78;;;8.57;;
51578;SDS011;47998;53.242;6.386;2023-02-03T11:07:57;46.17;;;7.82;;
51578;SDS011;47998;53.242;6.386;2023-02-03T11:13:20;45.30;;;7.68;;
51578;SDS011;47998;53.242;6.386;2023-02-03T11:15:51;54.60;;;7.55;;
51578;SDS011;47998;53.242;6.386;2023-02-03T11:18:26;45.28;;;8.25;;
51578;SDS011;47998;53.242;6.386;2023-02-03T11:20:57;48.17;;;8.30;;
51578;SDS011;47998;53.242;6.386;2023-02-03T11:23:23;50.53;;;8.38;;
51578;SDS011;47998;53.242;6.386;2023-02-03T11:25:49;35.45;;;7.35;;
51578;SDS011;47998;53.242;6.386;2023-02-03T11:28:15;38.22;;;8.85;;
51578;SDS011;47998;53.242;6.386;2023-02-03T11:30:42;29.80;;;5.57;;
51578;SDS011;47998;53.242;6.386;2023-02-03T11:33:15;38.08;;;6.13;;
51578;SDS011;47998;53.242;6.386;2023-02-03T11:35:56;37.80;;;6.65;;
51578;SDS011;47998;53.242;6.386;2023-02-03T11:38:30;28.88;;;5.78;;
51578;SDS011;47998;53.242;6.386;2023-02-03T11:41:00;60.05;;;9.55;;
51578;SDS011;47998;53.242;6.386;2023-02-03T11:43:27;44.53;;;7.13;;
51578;SDS011;47998;53.242;6.386;2023-02-03T11:45:57;48.17;;;8.18;;
51578;SDS011;47998;53.242;6.386;2023-02-03T11:53:52;32.08;;;6.95;;
51578;SDS011;47998;53.242;6.386;2023-02-03T12:08:17;39.78;;;7.57;;
51578;SDS011;47998;53.242;6.386;2023-02-03T12:10:56;55.38;;;11.32;;
51578;SDS011;47998;53.242;6.386;2023-02-03T12:17:02;26.77;;;5.25;;
51578;SDS011;47998;53.242;6.386;2023-02-03T12:19:48;41.47;;;7.75;;
51578;SDS011;47998;53.242;6.386;2023-02-03T12:25:45;29.52;;;5.22;;
51578;SDS011;47998;53.242;6.386;2023-02-03T12:31:17;32.63;;;6.38;;
51578;SDS011;47998;53.242;6.386;2023-02-03T12:33:56;27.77;;;5.78;;
51578;SDS011;47998;53.242;6.386;2023-02-03T12:36:41;29.33;;;6.13;;
51578;SDS011;47998;53.242;6.386;2023-02-03T12:39:24;50.45;;;8.85;;
51578;SDS011;47998;53.242;6.386;2023-02-03T12:42:02;42.78;;;8.18;;
51578;SDS011;47998;53.242;6.386;2023-02-03T12:44:57;33.40;;;6.53;;
51578;SDS011;47998;53.242;6.386;2023-02-03T12:47:47;33.22;;;7.95;;
51578;SDS011;47998;53.242;6.386;2023-02-03T12:50:22;38.10;;;6.10;;
51578;SDS011;47998;53.242;6.386;2023-02-03T12:53:08;38.83;;;6.40;;
51578;SDS011;47998;53.242;6.386;2023-02-03T12:55:42;36.42;;;6.82;;
51578;SDS011;47998;53.242;6.386;2023-02-03T12:58:24;51.72;;;8.85;;
51578;SDS011;47998;53.242;6.386;2023-02-03T13:13:44;45.33;;;8.55;;
51578;SDS011;47998;53.242;6.386;2023-02-03T13:16:16;32.05;;;6.43;;
51578;SDS011;47998;53.242;6.386;2023-02-03T13:18:47;39.72;;;6.22;;
51578;SDS011;47998;53.242;6.386;2023-02-03T13:21:18;34.67;;;6.18;;
51578;SDS011;47998;53.242;6.386;2023-02-03T13:23:43;46.05;;;8.80;;
51578;SDS011;47998;53.242;6.386;2023-02-03T13:28:51;40.35;;;7.30;;
51578;SDS011;47998;53.242;6.386;2023-02-03T13:39:39;25.80;;;4.82;;
51578;SDS011;47998;53.242;6.386;2023-02-03T13:42:20;36.15;;;6.28;;
51578;SDS011;47998;53.242;6.386;2023-02-03T13:44:55;35.42;;;6.63;;
51578;SDS011;47998;53.242;6.386;2023-02-03T13:47:25;48.58;;;9.18;;
51578;SDS011;47998;53.242;6.386;2023-02-03T13:49:54;45.17;;;7.10;;
51578;SDS011;47998;53.242;6.386;2023-02-03T13:52:36;46.10;;;7.35;;
51578;SDS011;47998;53.242;6.386;2023-02-03T13:55:18;32.58;;;6.82;;
51578;SDS011;47998;53.242;6.386;2023-02-03T13:57:54;29.77;;;6.13;;
51578;SDS011;47998;53.242;6.386;2023-02-03T14:00:57;44.22;;;8.05;;
51578;SDS011;47998;53.242;6.386;2023-02-03T14:05:52;44.10;;;6.90;;
51578;SDS011;47998;53.242;6.386;2023-02-03T14:16:41;36.50;;;5.45;;
51578;SDS011;47998;53.242;6.386;2023-02-03T14:19:11;24.10;;;3.92;;
51578;SDS011;47998;53.242;6.386;2023-02-03T14:24:15;30.23;;;5.57;;
51578;SDS011;47998;53.242;6.386;2023-02-03T14:26:43;34.25;;;5.78;;
51578;SDS011;47998;53.242;6.386;2023-02-03T14:29:23;31.02;;;4.95;;
51578;SDS011;47998;53.242;6.386;2023-02-03T14:31:56;34.03;;;5.85;;
51578;SDS011;47998;53.242;6.386;2023-02-03T14:34:36;29.27;;;4.13;;
51578;SDS011;47998;53.242;6.386;2023-02-03T14:37:11;32.63;;;7.25;;
51578;SDS011;47998;53.242;6.386;2023-02-03T14:42:35;25.10;;;5.22;;
51578;SDS011;47998;53.242;6.386;2023-02-03T14:45:25;27.58;;;3.60;;
51578;SDS011;47998;53.242;6.386;2023-02-03T14:53:56;25.10;;;4.35;;
51578;SDS011;47998;53.242;6.386;2023-02-03T14:59:28;37.47;;;6.32;;
51578;SDS011;47998;53.242;6.386;2023-02-03T15:02:09;30.95;;;6.05;;
51578;SDS011;47998;53.242;6.386;2023-02-03T15:04:40;29.48;;;5.38;;
51578;SDS011;47998;53.242;6.386;2023-02-03T15:07:09;38.78;;;6.90;;
51578;SDS011;47998;53.242;6.386;2023-02-03T15:09:59;36.33;;;7.15;;
51578;SDS011;47998;53.242;6.386;2023-02-03T15:12:25;36.88;;;7.03;;
51578;SDS011;47998;53.242;6.386;2023-02-03T15:15:11;36.90;;;6.05;;
51578;SDS011;47998;53.242;6.386;2023-02-03T15:17:38;31.45;;;5.90;;
51578;SDS011;47998;53.242;6.386;2023-02-03T15:22:49;31.58;;;7.57;;
51578;SDS011;47998;53.242;6.386;2023-02-03T15:25:16;33.92;;;6.20;;
51578;SDS011;47998;53.242;6.386;2023-02-03T15:27:45;34.13;;;5.45;;
51578;SDS011;47998;53.242;6.386;2023-02-03T15:30:22;36.10;;;7.30;;
51578;SDS011;47998;53.242;6.386;2023-02-03T15:35:40;24.52;;;5.43;;
51578;SDS011;47998;53.242;6.386;2023-02-03T15:38:13;30.08;;;7.03;;
51578;SDS011;47998;53.242;6.386;2023-02-03T15:40:44;28.40;;;5.93;;
51578;SDS011;47998;53.242;6.386;2023-02-03T15:48:45;38.60;;;5.85;;
51578;SDS011;47998;53.242;6.386;2023-02-03T15:54:14;26.13;;;3.88;;
51578;SDS011;47998;53.242;6.386;2023-02-03T15:59:35;24.85;;;5.20;;
51578;SDS011;47998;53.242;6.386;2023-02-03T16:02:06;44.53;;;7.93;;
51578;SDS011;47998;53.242;6.386;2023-02-03T16:05:02;36.95;;;5.35;;
51578;SDS011;47998;53.242;6.386;2023-02-03T16:07:30;43.33;;;6.35;;
51578;SDS011;47998;53.242;6.386;2023-02-03T16:09:57;25.83;;;5.05;;
51578;SDS011;47998;53.242;6.386;2023-02-03T16:12:27;30.55;;;5.72;;
51578;SDS011;47998;53.242;6.386;2023-02-03T16:14:55;41.30;;;7.43;;
51578;SDS011;47998;53.242;6.386;2023-02-03T16:19:48;35.25;;;7.55;;
51578;SDS011;47998;53.242;6.386;2023-02-03T16:22:28;63.10;;;9.13;;
51578;SDS011;47998;53.242;6.386;2023-02-03T16:25:13;55.55;;;8.02;;
51578;SDS011;47998;53.242;6.386;2023-02-03T16:27:43;42.88;;;5.93;;
51578;SDS011;47998;53.242;6.386;2023-02-03T16:33:03;29.55;;;4.80;;
51578;SDS011;47998;53.242;6.386;2023-02-03T16:35:51;46.22;;;8.10;;
51578;SDS011;47998;53.242;6.386;2023-02-03T16:38:36;42.35;;;6.95;;
51578;SDS011;47998;53.242;6.386;2023-02-03T16:41:20;43.83;;;8.10;;
51578;SDS011;47998;53.242;6.386;2023-02-03T16:44:04;46.70;;;6.75;;
51578;SDS011;47998;53.242;6.386;2023-02-03T16:46:49;36.78;;;6.57;;
51578;SDS011;47998;53.242;6.386;2023-02-03T16:49:33;51.78;;;8.77;;
51578;SDS011;47998;53.242;6.386;2023-02-03T16:52:17;37.45;;;5.68;;
51578;SDS011;47998;53.242;6.386;2023-02-03T16:54:43;38.83;;;6.57;;
51578;SDS011;47998;53.242;6.386;2023-02-03T16:57:08;38.90;;;7.90;;
51578;SDS011;47998;53.242;6.386;2023-02-03T16:59:34;43.03;;;6.68;;
51578;SDS011;47998;53.242;6.386;2023-02-03T17:02:00;41.03;;;7.80;;
51578;SDS011;47998;53.242;6.386;2023-02-03T17:04:26;46.03;;;7.63;;
51578;SDS011;47998;53.242;6.386;2023-02-03T17:06:51;39.42;;;7.00;;
51578;SDS011;47998;53.242;6.386;2023-02-03T17:09:17;40.40;;;7.38;;
51578;SDS011;47998;53.242;6.386;2023-02-03T17:11:47;37.67;;;6.32;;
51578;SDS011;47998;53.242;6.386;2023-02-03T17:14:13;32.80;;;6.97;;
51578;SDS011;47998;53.242;6.386;2023-02-03T17:16:39;46.33;;;7.93;;
51578;SDS011;47998;53.242;6.386;2023-02-03T17:19:08;43.75;;;9.02;;
51578;SDS011;47998;53.242;6.386;2023-02-03T17:21:35;50.95;;;8.63;;
51578;SDS011;47998;53.242;6.386;2023-02-03T17:24:00;37.15;;;6.82;;
51578;SDS011;47998;53.242;6.386;2023-02-03T17:26:27;41.15;;;8.02;;
51578;SDS011;47998;53.242;6.386;2023-02-03T17:28:52;31.42;;;6.88;;